sensor_id;sensor_type;location;lat;lon;timestamp;P1;durP1;ratioP1;P2;durP2;ratioP2
48627;SDS011;34424;52.234;6.500;2022-08-07T00:01:00;9.65;;;6.78;;
48627;SDS011;34424;52.234;6.500;2022-08-07T00:06:24;8.77;;;7.03;;
48627;SDS011;34424;52.234;6.500;2022-08-07T00:11:33;8.18;;;6.72;;
48627;SDS011;34424;52.234;6.500;2022-08-07T00:16:55;9.43;;;7.50;;
48627;SDS011;34424;52.234;6.500;2022-08-07T00:21:59;8.27;;;6.88;;
48627;SDS011;34424;52.234;6.500;2022-08-07T00:27:03;8.20;;;7.10;;
48627;SDS011;34424;52.234;6.500;2022-08-07T00:32:09;9.88;;;7.63;;
48627;SDS011;34424;52.234;6.500;2022-08-07T00:37:15;12.38;;;10.00;;
48627;SDS011;34424;52.234;6.500;2022-08-07T00:42:22;12.15;;;8.82;;
48627;SDS011;34424;52.234;6.500;2022-08-07T00:47:29;12.90;;;9.02;;
48627;SDS011;34424;52.234;6.500;2022-08-07T00:52:53;12.55;;;8.60;;
48627;SDS011;34424;52.234;6.500;2022-08-07T00:57:56;11.55;;;8.30;;
48627;SDS011;34424;52.234;6.500;2022-08-07T01:03:00;11.80;;;7.90;;
48627;SDS011;34424;52.234;6.500;2022-08-07T01:08:04;10.37;;;8.77;;
48627;SDS011;34424;52.234;6.500;2022-08-07T01:13:09;9.95;;;8.93;;
48627;SDS011;34424;52.234;6.500;2022-08-07T01:18:16;10.82;;;8.38;;
48627;SDS011;34424;52.234;6.500;2022-08-07T01:23:20;12.20;;;9.07;;
48627;SDS011;34424;52.234;6.500;2022-08-07T01:28:39;11.38;;;9.13;;
48627;SDS011;34424;52.234;6.500;2022-08-07T01:33:46;11.13;;;8.93;;
48627;SDS011;34424;52.234;6.500;2022-08-07T01:38:59;13.88;;;9.23;;
48627;SDS011;34424;52.234;6.500;2022-08-07T01:44:10;9.50;;;7.65;;
48627;SDS011;34424;52.234;6.500;2022-08-07T01:54:23;12.50;;;10.15;;
48627;SDS011;34424;52.234;6.500;2022-08-07T01:59:39;13.52;;;10.13;;
48627;SDS011;34424;52.234;6.500;2022-08-07T02:04:46;13.32;;;9.05;;
48627;SDS011;34424;52.234;6.500;2022-08-07T02:09:58;13.20;;;9.43;;
48627;SDS011;34424;52.234;6.500;2022-08-07T02:15:03;12.07;;;10.13;;
48627;SDS011;34424;52.234;6.500;2022-08-07T02:20:09;13.77;;;10.20;;
48627;SDS011;34424;52.234;6.500;2022-08-07T02:25:21;13.48;;;11.13;;
48627;SDS011;34424;52.234;6.500;2022-08-07T02:30:45;11.65;;;10.13;;
48627;SDS011;34424;52.234;6.500;2022-08-07T02:35:49;12.73;;;9.63;;
48627;SDS011;34424;52.234;6.500;2022-08-07T02:41:14;14.45;;;11.02;;
48627;SDS011;34424;52.234;6.500;2022-08-07T02:46:22;15.43;;;10.80;;
48627;SDS011;34424;52.234;6.500;2022-08-07T02:51:28;17.05;;;12.13;;
48627;SDS011;34424;52.234;6.500;2022-08-07T02:56:53;15.70;;;11.75;;
48627;SDS011;34424;52.234;6.500;2022-08-07T03:01:57;16.02;;;12.00;;
48627;SDS011;34424;52.234;6.500;2022-08-07T03:07:02;16.13;;;12.13;;
48627;SDS011;34424;52.234;6.500;2022-08-07T03:12:12;17.77;;;11.80;;
48627;SDS011;34424;52.234;6.500;2022-08-07T03:17:30;18.45;;;13.30;;
48627;SDS011;34424;52.234;6.500;2022-08-07T03:22:54;18.60;;;14.07;;
48627;SDS011;34424;52.234;6.500;2022-08-07T03:28:00;16.55;;;13.20;;
48627;SDS011;34424;52.234;6.500;2022-08-07T03:33:24;16.52;;;13.25;;
48627;SDS011;34424;52.234;6.500;2022-08-07T03:38:32;18.95;;;12.77;;
48627;SDS011;34424;52.234;6.500;2022-08-07T03:43:38;16.13;;;12.60;;
48627;SDS011;34424;52.234;6.500;2022-08-07T03:48:57;16.65;;;12.85;;
48627;SDS011;34424;52.234;6.500;2022-08-07T03:54:03;17.23;;;13.30;;
48627;SDS011;34424;52.234;6.500;2022-08-07T03:59:27;19.83;;;14.00;;
48627;SDS011;34424;52.234;6.500;2022-08-07T04:04:33;18.20;;;12.98;;
48627;SDS011;34424;52.234;6.500;2022-08-07T04:09:35;15.93;;;12.90;;
48627;SDS011;34424;52.234;6.500;2022-08-07T04:14:51;18.98;;;14.43;;
48627;SDS011;34424;52.234;6.500;2022-08-07T04:19:56;19.02;;;14.35;;
48627;SDS011;34424;52.234;6.500;2022-08-07T04:24:59;21.13;;;14.98;;
48627;SDS011;34424;52.234;6.500;2022-08-07T04:30:04;23.02;;;15.63;;
48627;SDS011;34424;52.234;6.500;2022-08-07T04:35:21;22.63;;;15.77;;
48627;SDS011;34424;52.234;6.500;2022-08-07T04:40:24;18.63;;;14.15;;
48627;SDS011;34424;52.234;6.500;2022-08-07T04:45:36;20.35;;;15.15;;
48627;SDS011;34424;52.234;6.500;2022-08-07T04:51:03;21.35;;;15.35;;
48627;SDS011;34424;52.234;6.500;2022-08-07T04:56:13;22.02;;;17.60;;
48627;SDS011;34424;52.234;6.500;2022-08-07T05:01:43;24.38;;;17.35;;
48627;SDS011;34424;52.234;6.500;2022-08-07T05:06:52;22.85;;;16.20;;
48627;SDS011;34424;52.234;6.500;2022-08-07T05:11:59;23.98;;;17.33;;
48627;SDS011;34424;52.234;6.500;2022-08-07T05:17:09;21.27;;;15.80;;
48627;SDS011;34424;52.234;6.500;2022-08-07T05:22:34;22.75;;;18.17;;
48627;SDS011;34424;52.234;6.500;2022-08-07T05:27:40;23.25;;;18.45;;
48627;SDS011;34424;52.234;6.500;2022-08-07T05:33:06;25.42;;;17.85;;
48627;SDS011;34424;52.234;6.500;2022-08-07T05:38:12;21.60;;;16.50;;
48627;SDS011;34424;52.234;6.500;2022-08-07T05:43:35;22.80;;;16.53;;
48627;SDS011;34424;52.234;6.500;2022-08-07T05:49:00;24.67;;;16.35;;
48627;SDS011;34424;52.234;6.500;2022-08-07T05:54:13;24.20;;;14.73;;
48627;SDS011;34424;52.234;6.500;2022-08-07T05:59:36;20.27;;;13.60;;
48627;SDS011;34424;52.234;6.500;2022-08-07T06:05:00;18.83;;;12.52;;
48627;SDS011;34424;52.234;6.500;2022-08-07T06:10:07;19.80;;;13.77;;
48627;SDS011;34424;52.234;6.500;2022-08-07T06:15:15;21.58;;;13.50;;
48627;SDS011;34424;52.234;6.500;2022-08-07T06:20:22;19.17;;;12.75;;
48627;SDS011;34424;52.234;6.500;2022-08-07T06:25:45;17.40;;;10.15;;
48627;SDS011;34424;52.234;6.500;2022-08-07T06:30:57;12.38;;;10.00;;
48627;SDS011;34424;52.234;6.500;2022-08-07T06:36:01;11.70;;;9.13;;
48627;SDS011;34424;52.234;6.500;2022-08-07T06:41:14;13.10;;;8.40;;
48627;SDS011;34424;52.234;6.500;2022-08-07T06:46:41;11.77;;;8.45;;
48627;SDS011;34424;52.234;6.500;2022-08-07T06:51:55;9.88;;;8.15;;
48627;SDS011;34424;52.234;6.500;2022-08-07T06:57:07;9.63;;;7.38;;
48627;SDS011;34424;52.234;6.500;2022-08-07T07:02:14;8.48;;;7.00;;
48627;SDS011;34424;52.234;6.500;2022-08-07T07:07:41;7.15;;;6.25;;
48627;SDS011;34424;52.234;6.500;2022-08-07T07:13:07;8.27;;;6.78;;
48627;SDS011;34424;52.234;6.500;2022-08-07T07:18:16;8.18;;;6.90;;
48627;SDS011;34424;52.234;6.500;2022-08-07T07:23:42;6.32;;;5.25;;
48627;SDS011;34424;52.234;6.500;2022-08-07T07:29:07;6.53;;;4.53;;
48627;SDS011;34424;52.234;6.500;2022-08-07T07:34:33;6.75;;;4.13;;
48627;SDS011;34424;52.234;6.500;2022-08-07T07:39:41;4.55;;;4.13;;
48627;SDS011;34424;52.234;6.500;2022-08-07T07:44:55;6.35;;;4.60;;
48627;SDS011;34424;52.234;6.500;2022-08-07T07:50:01;5.93;;;4.72;;
48627;SDS011;34424;52.234;6.500;2022-08-07T07:55:26;6.35;;;4.82;;
48627;SDS011;34424;52.234;6.500;2022-08-07T08:00:45;4.70;;;4.15;;
48627;SDS011;34424;52.234;6.500;2022-08-07T08:05:55;7.00;;;4.82;;
48627;SDS011;34424;52.234;6.500;2022-08-07T08:10:59;4.93;;;4.03;;
48627;SDS011;34424;52.234;6.500;2022-08-07T08:16:04;5.88;;;3.92;;
48627;SDS011;34424;52.234;6.500;2022-08-07T08:21:13;3.72;;;2.10;;
48627;SDS011;34424;52.234;6.500;2022-08-07T08:26:53;2.90;;;1.50;;
48627;SDS011;34424;52.234;6.500;2022-08-07T08:32:10;3.08;;;1.38;;
48627;SDS011;34424;52.234;6.500;2022-08-07T08:37:26;1.88;;;1.20;;
48627;SDS011;34424;52.234;6.500;2022-08-07T08:42:53;2.45;;;1.70;;
48627;SDS011;34424;52.234;6.500;2022-08-07T08:48:03;2.42;;;1.65;;
48627;SDS011;34424;52.234;6.500;2022-08-07T08:53:11;1.60;;;1.40;;
48627;SDS011;34424;52.234;6.500;2022-08-07T08:58:25;1.88;;;1.60;;
48627;SDS011;34424;52.234;6.500;2022-08-07T09:03:37;4.28;;;2.10;;
48627;SDS011;34424;52.234;6.500;2022-08-07T09:08:51;3.13;;;1.77;;
48627;SDS011;34424;52.234;6.500;2022-08-07T09:14:06;2.67;;;2.00;;
48627;SDS011;34424;52.234;6.500;2022-08-07T09:19:16;3.17;;;1.63;;
48627;SDS011;34424;52.234;6.500;2022-08-07T09:24:45;2.25;;;1.80;;
48627;SDS011;34424;52.234;6.500;2022-08-07T09:30:09;4.10;;;1.90;;
48627;SDS011;34424;52.234;6.500;2022-08-07T09:35:24;3.42;;;1.90;;
48627;SDS011;34424;52.234;6.500;2022-08-07T09:40:59;1.98;;;1.60;;
48627;SDS011;34424;52.234;6.500;2022-08-07T09:46:12;2.43;;;1.80;;
48627;SDS011;34424;52.234;6.500;2022-08-07T09:51:52;1.83;;;1.40;;
48627;SDS011;34424;52.234;6.500;2022-08-07T09:57:38;1.70;;;1.42;;
48627;SDS011;34424;52.234;6.500;2022-08-07T10:08:57;3.10;;;2.53;;
48627;SDS011;34424;52.234;6.500;2022-08-07T10:14:19;2.78;;;1.80;;
48627;SDS011;34424;52.234;6.500;2022-08-07T10:19:44;2.83;;;1.98;;
48627;SDS011;34424;52.234;6.500;2022-08-07T10:25:02;2.95;;;1.67;;
48627;SDS011;34424;52.234;6.500;2022-08-07T10:30:14;1.90;;;1.63;;
48627;SDS011;34424;52.234;6.500;2022-08-07T10:35:25;3.70;;;2.03;;
48627;SDS011;34424;52.234;6.500;2022-08-07T10:40:53;4.07;;;1.80;;
48627;SDS011;34424;52.234;6.500;2022-08-07T10:46:04;2.40;;;2.13;;
48627;SDS011;34424;52.234;6.500;2022-08-07T10:51:16;3.08;;;1.85;;
48627;SDS011;34424;52.234;6.500;2022-08-07T10:56:44;1.90;;;1.45;;
48627;SDS011;34424;52.234;6.500;2022-08-07T11:01:56;4.15;;;1.65;;
48627;SDS011;34424;52.234;6.500;2022-08-07T11:07:17;2.28;;;1.40;;
48627;SDS011;34424;52.234;6.500;2022-08-07T11:12:48;4.15;;;1.90;;
48627;SDS011;34424;52.234;6.500;2022-08-07T11:18:03;3.05;;;1.98;;
48627;SDS011;34424;52.234;6.500;2022-08-07T11:23:17;2.83;;;2.10;;
48627;SDS011;34424;52.234;6.500;2022-08-07T11:28:38;2.17;;;1.90;;
48627;SDS011;34424;52.234;6.500;2022-08-07T11:33:56;2.45;;;2.20;;
48627;SDS011;34424;52.234;6.500;2022-08-07T11:39:16;2.55;;;2.08;;
48627;SDS011;34424;52.234;6.500;2022-08-07T11:44:51;4.03;;;2.40;;
48627;SDS011;34424;52.234;6.500;2022-08-07T11:50:02;2.58;;;2.20;;
48627;SDS011;34424;52.234;6.500;2022-08-07T11:55:52;2.70;;;2.50;;
48627;SDS011;34424;52.234;6.500;2022-08-07T12:01:30;2.45;;;1.95;;
48627;SDS011;34424;52.234;6.500;2022-08-07T12:07:01;2.55;;;2.20;;
48627;SDS011;34424;52.234;6.500;2022-08-07T12:12:31;2.67;;;2.00;;
48627;SDS011;34424;52.234;6.500;2022-08-07T12:17:39;2.00;;;1.80;;
48627;SDS011;34424;52.234;6.500;2022-08-07T12:23:13;2.67;;;1.52;;
48627;SDS011;34424;52.234;6.500;2022-08-07T12:28:46;1.60;;;1.50;;
48627;SDS011;34424;52.234;6.500;2022-08-07T12:33:54;3.35;;;2.00;;
48627;SDS011;34424;52.234;6.500;2022-08-07T12:39:04;2.28;;;1.60;;
48627;SDS011;34424;52.234;6.500;2022-08-07T12:44:29;4.35;;;1.83;;
48627;SDS011;34424;52.234;6.500;2022-08-07T12:49:36;2.03;;;1.83;;
48627;SDS011;34424;52.234;6.500;2022-08-07T12:54:53;2.55;;;2.08;;
48627;SDS011;34424;52.234;6.500;2022-08-07T13:00:11;2.78;;;2.00;;
48627;SDS011;34424;52.234;6.500;2022-08-07T13:05:35;2.10;;;1.87;;
48627;SDS011;34424;52.234;6.500;2022-08-07T13:11:07;2.25;;;1.83;;
48627;SDS011;34424;52.234;6.500;2022-08-07T13:16:32;3.20;;;2.08;;
48627;SDS011;34424;52.234;6.500;2022-08-07T13:21:43;2.58;;;1.80;;
48627;SDS011;34424;52.234;6.500;2022-08-07T13:27:04;2.25;;;2.05;;
48627;SDS011;34424;52.234;6.500;2022-08-07T13:32:15;3.28;;;2.22;;
48627;SDS011;34424;52.234;6.500;2022-08-07T13:37:37;2.55;;;1.77;;
48627;SDS011;34424;52.234;6.500;2022-08-07T13:43:00;2.35;;;1.88;;
48627;SDS011;34424;52.234;6.500;2022-08-07T13:48:13;2.20;;;2.00;;
48627;SDS011;34424;52.234;6.500;2022-08-07T13:53:37;2.42;;;1.60;;
48627;SDS011;34424;52.234;6.500;2022-08-07T13:59:01;3.15;;;2.08;;
48627;SDS011;34424;52.234;6.500;2022-08-07T14:04:14;4.28;;;2.33;;
48627;SDS011;34424;52.234;6.500;2022-08-07T14:09:22;2.65;;;1.92;;
48627;SDS011;34424;52.234;6.500;2022-08-07T14:14:47;2.10;;;1.63;;
48627;SDS011;34424;52.234;6.500;2022-08-07T14:19:57;2.90;;;2.03;;
48627;SDS011;34424;52.234;6.500;2022-08-07T14:25:25;1.77;;;1.67;;
48627;SDS011;34424;52.234;6.500;2022-08-07T14:30:46;1.80;;;1.63;;
48627;SDS011;34424;52.234;6.500;2022-08-07T14:35:54;4.03;;;2.35;;
48627;SDS011;34424;52.234;6.500;2022-08-07T14:41:04;2.85;;;1.80;;
48627;SDS011;34424;52.234;6.500;2022-08-07T14:46:16;1.90;;;1.65;;
48627;SDS011;34424;52.234;6.500;2022-08-07T14:51:33;4.00;;;1.98;;
48627;SDS011;34424;52.234;6.500;2022-08-07T14:56:59;3.45;;;1.92;;
48627;SDS011;34424;52.234;6.500;2022-08-07T15:02:07;3.50;;;1.90;;
48627;SDS011;34424;52.234;6.500;2022-08-07T15:07:33;2.10;;;1.90;;
48627;SDS011;34424;52.234;6.500;2022-08-07T15:12:53;1.83;;;1.60;;
48627;SDS011;34424;52.234;6.500;2022-08-07T15:17:59;2.28;;;1.70;;
48627;SDS011;34424;52.234;6.500;2022-08-07T15:23:17;4.20;;;1.92;;
48627;SDS011;34424;52.234;6.500;2022-08-07T15:28:43;2.75;;;1.60;;
48627;SDS011;34424;52.234;6.500;2022-08-07T15:34:08;3.33;;;1.70;;
48627;SDS011;34424;52.234;6.500;2022-08-07T15:39:18;2.60;;;1.48;;
48627;SDS011;34424;52.234;6.500;2022-08-07T15:44:27;2.88;;;1.35;;
48627;SDS011;34424;52.234;6.500;2022-08-07T15:49:32;2.10;;;1.65;;
48627;SDS011;34424;52.234;6.500;2022-08-07T15:54:58;2.45;;;1.95;;
48627;SDS011;34424;52.234;6.500;2022-08-07T16:00:04;2.30;;;2.00;;
48627;SDS011;34424;52.234;6.500;2022-08-07T16:05:09;2.22;;;1.80;;
48627;SDS011;34424;52.234;6.500;2022-08-07T16:10:17;1.83;;;1.73;;
48627;SDS011;34424;52.234;6.500;2022-08-07T16:15:30;1.67;;;1.50;;
48627;SDS011;34424;52.234;6.500;2022-08-07T16:21:00;2.05;;;1.65;;
48627;SDS011;34424;52.234;6.500;2022-08-07T16:26:34;2.97;;;1.75;;
48627;SDS011;34424;52.234;6.500;2022-08-07T16:32:01;1.65;;;1.50;;
48627;SDS011;34424;52.234;6.500;2022-08-07T16:37:16;2.50;;;2.00;;
48627;SDS011;34424;52.234;6.500;2022-08-07T16:42:54;1.83;;;1.70;;
48627;SDS011;34424;52.234;6.500;2022-08-07T16:54:21;2.25;;;1.98;;
48627;SDS011;34424;52.234;6.500;2022-08-07T16:59:39;2.15;;;1.60;;
48627;SDS011;34424;52.234;6.500;2022-08-07T17:04:52;2.03;;;1.92;;
48627;SDS011;34424;52.234;6.500;2022-08-07T17:10:30;2.15;;;1.77;;
48627;SDS011;34424;52.234;6.500;2022-08-07T17:15:42;5.38;;;2.17;;
48627;SDS011;34424;52.234;6.500;2022-08-07T17:26:00;1.73;;;1.63;;
48627;SDS011;34424;52.234;6.500;2022-08-07T17:31:38;2.10;;;1.73;;
48627;SDS011;34424;52.234;6.500;2022-08-07T17:37:08;1.98;;;1.50;;
48627;SDS011;34424;52.234;6.500;2022-08-07T17:42:39;1.55;;;1.45;;
48627;SDS011;34424;52.234;6.500;2022-08-07T17:48:04;3.58;;;1.83;;
48627;SDS011;34424;52.234;6.500;2022-08-07T17:53:19;2.70;;;1.63;;
48627;SDS011;34424;52.234;6.500;2022-08-07T17:58:49;2.35;;;1.40;;
48627;SDS011;34424;52.234;6.500;2022-08-07T18:04:07;3.55;;;1.88;;
48627;SDS011;34424;52.234;6.500;2022-08-07T18:09:18;2.05;;;1.48;;
48627;SDS011;34424;52.234;6.500;2022-08-07T18:14:43;3.08;;;1.45;;
48627;SDS011;34424;52.234;6.500;2022-08-07T18:19:53;2.08;;;1.60;;
48627;SDS011;34424;52.234;6.500;2022-08-07T18:25:21;2.63;;;2.08;;
48627;SDS011;34424;52.234;6.500;2022-08-07T18:30:45;2.75;;;1.80;;
48627;SDS011;34424;52.234;6.500;2022-08-07T18:36:01;3.25;;;1.90;;
48627;SDS011;34424;52.234;6.500;2022-08-07T18:41:12;4.03;;;2.10;;
48627;SDS011;34424;52.234;6.500;2022-08-07T18:46:22;2.80;;;1.98;;
48627;SDS011;34424;52.234;6.500;2022-08-07T18:51:30;2.38;;;1.80;;
48627;SDS011;34424;52.234;6.500;2022-08-07T18:57:03;3.50;;;1.55;;
48627;SDS011;34424;52.234;6.500;2022-08-07T19:02:37;2.22;;;1.70;;
48627;SDS011;34424;52.234;6.500;2022-08-07T19:07:50;2.73;;;2.03;;
48627;SDS011;34424;52.234;6.500;2022-08-07T19:13:02;2.65;;;1.88;;
48627;SDS011;34424;52.234;6.500;2022-08-07T19:18:14;2.17;;;1.98;;
48627;SDS011;34424;52.234;6.500;2022-08-07T19:23:37;6.10;;;2.50;;
48627;SDS011;34424;52.234;6.500;2022-08-07T19:29:00;2.50;;;2.00;;
48627;SDS011;34424;52.234;6.500;2022-08-07T19:34:27;2.25;;;1.90;;
48627;SDS011;34424;52.234;6.500;2022-08-07T19:39:37;4.68;;;2.35;;
48627;SDS011;34424;52.234;6.500;2022-08-07T19:45:02;4.70;;;2.50;;
48627;SDS011;34424;52.234;6.500;2022-08-07T19:50:09;2.53;;;2.28;;
48627;SDS011;34424;52.234;6.500;2022-08-07T19:55:34;3.45;;;2.40;;
48627;SDS011;34424;52.234;6.500;2022-08-07T20:06:02;4.72;;;2.78;;
48627;SDS011;34424;52.234;6.500;2022-08-07T20:16:42;3.08;;;2.78;;
48627;SDS011;34424;52.234;6.500;2022-08-07T20:21:54;4.57;;;3.50;;
48627;SDS011;34424;52.234;6.500;2022-08-07T20:27:04;5.43;;;2.70;;
48627;SDS011;34424;52.234;6.500;2022-08-07T20:32:12;3.55;;;3.03;;
48627;SDS011;34424;52.234;6.500;2022-08-07T20:37:28;3.75;;;3.33;;
48627;SDS011;34424;52.234;6.500;2022-08-07T20:42:38;3.97;;;3.00;;
48627;SDS011;34424;52.234;6.500;2022-08-07T20:47:54;3.55;;;3.00;;
48627;SDS011;34424;52.234;6.500;2022-08-07T20:52:59;5.43;;;2.90;;
48627;SDS011;34424;52.234;6.500;2022-08-07T20:58:03;6.13;;;3.60;;
48627;SDS011;34424;52.234;6.500;2022-08-07T21:03:19;4.70;;;3.22;;
48627;SDS011;34424;52.234;6.500;2022-08-07T21:08:26;4.53;;;3.75;;
48627;SDS011;34424;52.234;6.500;2022-08-07T21:13:43;3.58;;;3.28;;
48627;SDS011;34424;52.234;6.500;2022-08-07T21:19:10;5.25;;;3.35;;
48627;SDS011;34424;52.234;6.500;2022-08-07T21:24:17;5.45;;;3.83;;
48627;SDS011;34424;52.234;6.500;2022-08-07T21:29:34;4.28;;;3.85;;
48627;SDS011;34424;52.234;6.500;2022-08-07T21:34:54;5.47;;;4.70;;
48627;SDS011;34424;52.234;6.500;2022-08-07T21:40:01;5.70;;;4.00;;
48627;SDS011;34424;52.234;6.500;2022-08-07T21:50:45;6.07;;;4.53;;
48627;SDS011;34424;52.234;6.500;2022-08-07T21:55:54;8.05;;;5.07;;
48627;SDS011;34424;52.234;6.500;2022-08-07T22:01:08;8.27;;;4.90;;
48627;SDS011;34424;52.234;6.500;2022-08-07T22:06:16;7.80;;;5.28;;
48627;SDS011;34424;52.234;6.500;2022-08-07T22:11:32;9.90;;;5.30;;
48627;SDS011;34424;52.234;6.500;2022-08-07T22:16:59;7.93;;;5.35;;
48627;SDS011;34424;52.234;6.500;2022-08-07T22:22:05;7.28;;;5.32;;
48627;SDS011;34424;52.234;6.500;2022-08-07T22:27:30;8.20;;;5.93;;
48627;SDS011;34424;52.234;6.500;2022-08-07T22:33:03;7.53;;;5.55;;
48627;SDS011;34424;52.234;6.500;2022-08-07T22:38:13;7.75;;;5.85;;
48627;SDS011;34424;52.234;6.500;2022-08-07T22:43:27;8.73;;;5.38;;
48627;SDS011;34424;52.234;6.500;2022-08-07T22:48:42;8.80;;;6.18;;
48627;SDS011;34424;52.234;6.500;2022-08-07T22:54:11;9.65;;;6.75;;
48627;SDS011;34424;52.234;6.500;2022-08-07T22:59:44;8.02;;;5.78;;
48627;SDS011;34424;52.234;6.500;2022-08-07T23:04:58;8.25;;;6.13;;
48627;SDS011;34424;52.234;6.500;2022-08-07T23:10:32;8.95;;;6.10;;
48627;SDS011;34424;52.234;6.500;2022-08-07T23:15:47;10.80;;;6.82;;
48627;SDS011;34424;52.234;6.500;2022-08-07T23:21:13;10.30;;;6.88;;
48627;SDS011;34424;52.234;6.500;2022-08-07T23:26:46;9.23;;;6.28;;
48627;SDS011;34424;52.234;6.500;2022-08-07T23:32:01;9.32;;;6.72;;
48627;SDS011;34424;52.234;6.500;2022-08-07T23:37:36;8.35;;;6.78;;
48627;SDS011;34424;52.234;6.500;2022-08-07T23:43:10;7.88;;;6.15;;
48627;SDS011;34424;52.234;6.500;2022-08-07T23:48:32;7.63;;;6.43;;
48627;SDS011;34424;52.234;6.500;2022-08-07T23:53:51;8.75;;;6.68;;
48627;SDS011;34424;52.234;6.500;2022-08-07T23:59:00;11.15;;;7.30;;
